Time;durP1;ratioP1;P1;durP2;ratioP2;P2;SDS_P1;SDS_P2;PMS_P1;PMS_P2;Temp;Humidity;BMP_temperature;BMP_pressure;BME280_temperature;BME280_humidity;BME280_pressure;Samples;Min_cycle;Max_cycle;Signal;HPM_P1;HPM_P2
2024/03/26 00:00:58;;;;;;;9.73;1.35;;;;;;;14.63;36.10;99471.28;4995465;28;20467;-68
2024/03/26 00:03:23;;;;;;;2.20;0.90;;;;;;;14.62;36.51;99472.28;4992090;28;20041;-68
2024/03/26 00:05:51;;;;;;;6.38;1.17;;;;;;;14.57;36.30;99465.59;4985216;28;20092;-67
2024/03/26 00:08:17;;;;;;;5.20;1.80;;;;;;;14.58;36.34;99469.97;5012870;28;20045;-68
2024/03/26 00:10:42;;;;;;;3.28;1.38;;;;;;;14.60;37.00;99455.47;4995437;28;20034;-68
2024/03/26 00:13:08;;;;;;;7.68;1.40;;;;;;;14.57;37.15;99462.91;4995326;28;20038;-68
2024/03/26 00:15:33;;;;;;;5.00;1.45;;;;;;;14.58;36.76;99452.97;5012821;28;20045;-63
2024/03/26 00:17:58;;;;;;;7.18;1.80;;;;;;;14.53;36.83;99439.22;5016340;28;20048;-63
2024/03/26 00:20:24;;;;;;;3.10;1.08;;;;;;;14.57;36.65;99443.22;4995424;28;20042;-63
2024/03/26 00:22:49;;;;;;;4.82;1.40;;;;;;;14.55;36.27;99442.56;5007002;28;20126;-63
2024/03/26 00:25:14;;;;;;;3.50;1.35;;;;;;;14.57;37.60;99452.13;5016462;28;20064;-63
2024/03/26 00:27:40;;;;;;;3.05;1.20;;;;;;;14.56;37.11;99433.47;4998723;28;20410;-63
2024/03/26 00:30:06;;;;;;;4.60;1.80;;;;;;;14.58;37.17;99432.25;4998464;28;20034;-63
2024/03/26 00:32:31;;;;;;;6.97;1.27;;;;;;;14.54;37.57;99417.47;4998416;28;20026;-63
2024/03/26 00:34:56;;;;;;;3.47;1.02;;;;;;;14.56;36.76;99428.91;5015830;28;20041;-63
2024/03/26 00:37:22;;;;;;;6.15;1.42;;;;;;;14.53;37.07;99415.81;5016243;28;20539;-63
2024/03/26 00:39:47;;;;;;;2.35;1.10;;;;;;;14.56;37.38;99418.13;5014658;28;20569;-63
2024/03/26 00:42:12;;;;;;;4.72;0.95;;;;;;;14.55;37.11;99411.06;5014667;28;20038;-63
2024/03/26 00:44:38;;;;;;;4.60;1.67;;;;;;;14.53;37.25;99407.72;5015963;28;20045;-63
2024/03/26 00:47:03;;;;;;;7.00;1.10;;;;;;;14.52;36.80;99406.03;4982512;28;20026;-63
2024/03/26 00:49:28;;;;;;;13.10;1.73;;;;;;;14.53;36.54;99410.41;5016571;28;20044;-63
2024/03/26 00:51:54;;;;;;;4.20;1.10;;;;;;;14.52;36.44;99406.03;4999926;28;20030;-63
2024/03/26 00:54:19;;;;;;;5.28;2.00;;;;;;;14.53;37.01;99405.03;4996706;28;20497;-63
2024/03/26 00:56:44;;;;;;;2.75;1.10;;;;;;;14.51;36.91;99398.16;5009544;28;20510;-63
2024/03/26 00:59:10;;;;;;;4.68;1.02;;;;;;;14.47;37.35;99392.31;4998567;28;20030;-63
2024/03/26 01:01:35;;;;;;;3.38;1.23;;;;;;;14.46;36.50;99387.13;5010438;28;20084;-63
2024/03/26 01:04:00;;;;;;;8.63;1.10;;;;;;;14.43;36.69;99374.84;4984442;28;20041;-63
2024/03/26 01:06:25;;;;;;;8.68;1.17;;;;;;;14.45;36.56;99383.59;5014229;28;20088;-63
2024/03/26 01:08:51;;;;;;;1.98;1.23;;;;;;;14.43;37.06;99376.72;5015519;28;20041;-63
2024/03/26 01:11:16;;;;;;;4.03;1.33;;;;;;;14.43;37.17;99382.13;4997888;28;20515;-63
2024/03/26 01:13:42;;;;;;;5.68;1.30;;;;;;;14.43;36.44;99369.44;5015708;28;20469;-63
2024/03/26 01:16:07;;;;;;;3.60;1.83;;;;;;;14.40;37.48;99369.03;4997942;28;20445;-63
2024/03/26 01:18:32;;;;;;;9.68;1.10;;;;;;;14.40;36.82;99364.47;4997750;28;20030;-63
2024/03/26 01:20:58;;;;;;;3.85;1.27;;;;;;;14.37;37.41;99356.75;5015409;28;20042;-63
2024/03/26 01:23:23;;;;;;;7.93;1.35;;;;;;;14.39;36.91;99368.19;4997653;28;20045;-63
2024/03/26 01:25:48;;;;;;;1.85;0.85;;;;;;;14.35;37.86;99349.91;5015234;28;20030;-62
2024/03/26 01:28:14;;;;;;;2.00;1.00;;;;;;;14.36;37.44;99356.94;4997201;28;20055;-63
2024/03/26 01:30:39;;;;;;;3.65;0.75;;;;;;;14.33;37.01;99347.38;4997799;28;20061;-62
2024/03/26 01:33:04;;;;;;;4.50;0.98;;;;;;;14.33;37.85;99352.78;4993976;28;20050;-62
2024/03/26 01:35:30;;;;;;;8.75;1.50;;;;;;;14.31;36.98;99349.41;4994274;28;20491;-63
2024/03/26 01:37:55;;;;;;;5.10;1.55;;;;;;;14.28;37.57;99344.41;4994200;28;20056;-62
2024/03/26 01:40:23;;;;;;;5.15;1.45;;;;;;;14.26;37.87;99346.44;5007207;28;20026;-62
2024/03/26 01:42:48;;;;;;;5.47;1.40;;;;;;;14.23;37.05;99333.34;4997418;28;20092;-62
2024/03/26 01:45:14;;;;;;;2.45;0.88;;;;;;;14.22;38.07;99339.75;4997567;28;20439;-62
2024/03/26 01:47:39;;;;;;;3.47;0.88;;;;;;;14.19;36.41;99329.34;4997178;28;20034;-62
2024/03/26 01:50:11;;;;;;;3.53;1.02;;;;;;;14.17;37.25;99322.50;5014722;28;20044;-62
2024/03/26 01:52:37;;;;;;;4.00;1.80;;;;;;;14.20;36.69;99320.28;4997432;28;20025;-62
2024/03/26 01:55:03;;;;;;;2.97;0.90;;;;;;;14.19;37.39;99318.59;4997027;28;20095;-62
2024/03/26 01:57:29;;;;;;;3.65;1.20;;;;;;;14.18;37.30;99311.53;4977339;28;20054;-62
2024/03/26 01:59:54;;;;;;;1.83;1.23;;;;;;;14.18;38.10;99314.22;4994000;28;20045;-63
2024/03/26 02:02:20;;;;;;;4.72;1.15;;;;;;;14.15;37.04;99311.94;4993576;28;20042;-62
2024/03/26 02:04:45;;;;;;;3.10;0.90;;;;;;;14.09;37.10;99296.53;4994877;28;20078;-62
2024/03/26 02:07:11;;;;;;;3.08;0.80;;;;;;;14.10;36.72;99302.75;4990391;28;20045;-63
2024/03/26 02:09:36;;;;;;;4.55;1.10;;;;;;;14.04;37.10;99282.81;4971760;28;20038;-63
2024/03/26 02:12:01;;;;;;;3.47;1.52;;;;;;;14.07;38.17;99295.84;4993585;28;20035;-62
2024/03/26 02:14:27;;;;;;;4.45;1.60;;;;;;;14.04;37.17;99288.19;4994716;28;20092;-62
2024/03/26 02:16:52;;;;;;;8.73;1.17;;;;;;;14.02;36.91;99284.81;4993413;28;20031;-62
2024/03/26 02:19:19;;;;;;;3.83;0.90;;;;;;;14.03;37.01;99286.50;4977198;28;20031;-62
2024/03/26 02:21:44;;;;;;;1.65;1.00;;;;;;;13.99;38.32;99274.44;4993463;28;20039;-63
2024/03/26 02:24:09;;;;;;;8.15;1.13;;;;;;;14.00;37.11;99268.03;4977182;28;20574;-63
2024/03/26 02:26:35;;;;;;;2.03;1.20;;;;;;;14.01;37.99;99267.03;4990076;28;20511;-62
2024/03/26 02:29:00;;;;;;;3.35;1.80;;;;;;;14.00;37.63;99265.34;4987956;28;20565;-62
2024/03/26 02:31:25;;;;;;;2.88;1.05;;;;;;;13.96;37.80;99264.88;4989939;28;20035;-62
2024/03/26 02:33:51;;;;;;;3.70;1.08;;;;;;;13.95;37.53;99257.00;4989202;28;20034;-62
2024/03/26 02:36:16;;;;;;;2.47;1.15;;;;;;;13.93;38.21;99251.00;4976748;28;20113;-62
2024/03/26 02:38:41;;;;;;;2.45;0.90;;;;;;;13.90;38.37;99243.28;4993539;28;20035;-62
2024/03/26 02:41:07;;;;;;;5.93;1.35;;;;;;;13.90;37.25;99241.41;4992890;28;20038;-62
2024/03/26 02:43:32;;;;;;;5.05;1.08;;;;;;;13.92;37.42;99241.22;4989733;28;20049;-63
2024/03/26 02:45:57;;;;;;;5.40;1.15;;;;;;;13.92;38.58;99241.22;4971959;28;20035;-62
2024/03/26 02:48:23;;;;;;;7.30;1.50;;;;;;;13.89;37.11;99236.22;4992838;28;20031;-62
2024/03/26 02:50:52;;;;;;;2.22;1.20;;;;;;;13.85;37.72;99227.69;4989688;28;20027;-62
2024/03/26 02:53:23;;;;;;;6.22;1.10;;;;;;;13.87;38.11;99238.28;4988676;28;20077;-63
2024/03/26 02:55:48;;;;;;;6.53;1.23;;;;;;;13.82;37.32;99225.38;4992957;28;20041;-62
2024/03/26 02:58:14;;;;;;;3.85;0.80;;;;;;;13.81;37.66;99220.19;5009632;28;20046;-62
2024/03/26 03:00:39;;;;;;;3.65;1.15;;;;;;;13.79;37.97;99219.56;4995692;28;20034;-62
2024/03/26 03:03:05;;;;;;;6.57;1.45;;;;;;;13.79;37.62;99219.56;4995962;28;20232;-62
2024/03/26 03:05:30;;;;;;;2.78;1.35;;;;;;;13.75;38.83;99213.72;4996011;28;20030;-62
2024/03/26 03:07:55;;;;;;;6.65;1.10;;;;;;;13.76;37.58;99209.16;4995881;28;20107;-62
2024/03/26 03:10:21;;;;;;;3.78;2.17;;;;;;;13.75;37.77;99200.25;4992608;28;20057;-63
2024/03/26 03:12:46;;;;;;;9.38;1.40;;;;;;;13.75;37.08;99197.56;4992628;28;20097;-62
2024/03/26 03:15:11;;;;;;;2.30;1.20;;;;;;;13.72;37.93;99191.72;4992274;28;20098;-63
2024/03/26 03:17:37;;;;;;;3.00;1.10;;;;;;;13.69;37.58;99189.41;5010499;28;20041;-63
2024/03/26 03:20:02;;;;;;;2.45;1.20;;;;;;;13.66;38.12;99176.31;4995644;28;20125;-63
2024/03/26 03:22:28;;;;;;;1.63;0.90;;;;;;;13.67;38.06;99172.63;5013221;28;20038;-63
2024/03/26 03:24:53;;;;;;;2.05;0.90;;;;;;;13.65;37.62;99170.09;5013260;28;20032;-63
2024/03/26 03:27:18;;;;;;;2.40;0.90;;;;;;;13.65;38.76;99174.69;5013147;28;20075;-62
2024/03/26 03:29:44;;;;;;;3.75;1.13;;;;;;;13.65;38.50;99163.91;4995684;28;20030;-63
2024/03/26 03:32:10;;;;;;;2.20;1.23;;;;;;;13.65;37.64;99169.28;4995731;28;20034;-63
2024/03/26 03:34:35;;;;;;;3.83;1.10;;;;;;;13.66;37.93;99170.94;4995529;28;20064;-63
2024/03/26 03:37:00;;;;;;;2.95;1.30;;;;;;;13.67;38.06;99169.94;4979442;28;20113;-63
2024/03/26 03:39:26;;;;;;;3.92;1.30;;;;;;;13.64;38.02;99162.22;5011765;28;20030;-63
2024/03/26 03:41:51;;;;;;;2.45;1.00;;;;;;;13.64;38.41;99151.47;5013079;28;20042;-63
2024/03/26 03:44:16;;;;;;;2.47;0.90;;;;;;;13.62;37.87;99153.53;5011858;28;20030;-63
2024/03/26 03:46:42;;;;;;;3.40;1.65;;;;;;;13.64;38.10;99157.69;4992227;28;20520;-63
2024/03/26 03:49:07;;;;;;;4.45;1.17;;;;;;;13.65;38.25;99147.78;5010947;28;20026;-63
2024/03/26 03:51:33;;;;;;;1.40;0.82;;;;;;;13.67;38.22;99153.78;4998731;28;20430;-63
2024/03/26 03:53:58;;;;;;;2.90;1.23;;;;;;;13.65;37.31;99145.88;4999307;28;20038;-63
2024/03/26 03:56:23;;;;;;;4.57;1.38;;;;;;;13.66;38.42;99136.81;5016782;28;20030;-63
2024/03/26 03:58:49;;;;;;;2.58;1.05;;;;;;;13.66;38.76;99136.81;4999427;28;20053;-62
2024/03/26 04:01:14;;;;;;;2.88;1.10;;;;;;;13.66;38.15;99133.28;4999677;28;20034;-63
2024/03/26 04:03:40;;;;;;;3.20;1.00;;;;;;;13.63;38.27;99120.19;5002839;28;20409;-63
2024/03/26 04:06:05;;;;;;;2.78;1.08;;;;;;;13.62;38.25;99127.47;5003369;28;20460;-62
2024/03/26 04:08:30;;;;;;;2.25;0.90;;;;;;;13.63;38.10;99122.88;5000988;28;20509;-62
2024/03/26 04:10:57;;;;;;;7.57;1.52;;;;;;;13.60;38.87;99123.28;5001647;28;20030;-62
2024/03/26 04:13:22;;;;;;;3.92;1.50;;;;;;;13.59;37.98;99129.69;5020215;28;20505;-63
2024/03/26 04:15:47;;;;;;;2.47;1.08;;;;;;;13.57;37.88;99119.09;5020716;28;20075;-63
2024/03/26 04:18:13;;;;;;;2.45;1.08;;;;;;;13.55;38.44;99125.69;5003154;28;20034;-63
2024/03/26 04:20:38;;;;;;;5.57;1.30;;;;;;;13.50;38.21;99112.00;5016751;28;20125;-63
2024/03/26 04:23:04;;;;;;;3.65;1.55;;;;;;;13.57;39.33;99112.91;5016251;28;20073;-62
2024/03/26 04:25:29;;;;;;;2.20;1.20;;;;;;;13.54;38.47;99097.16;4998606;28;20038;-63
2024/03/26 04:27:54;;;;;;;1.67;1.02;;;;;;;13.53;38.28;99101.69;5016279;28;20033;-62
2024/03/26 04:30:20;;;;;;;5.57;1.42;;;;;;;13.53;38.99;99100.84;4998605;28;20103;-63
2024/03/26 04:32:45;;;;;;;3.75;1.65;;;;;;;13.53;39.29;99100.84;4982288;28;20041;-63
2024/03/26 04:35:10;;;;;;;2.55;1.58;;;;;;;13.51;38.84;99098.38;5016281;28;20037;-63
2024/03/26 04:37:37;;;;;;;4.40;1.33;;;;;;;13.55;38.93;99104.19;4995176;28;20101;-62
2024/03/26 04:40:05;;;;;;;4.35;1.30;;;;;;;13.55;38.30;99109.56;4995198;28;20038;-62
2024/03/26 04:42:31;;;;;;;4.57;1.73;;;;;;;13.52;38.28;99099.19;5015534;28;20038;-62
2024/03/26 04:44:56;;;;;;;1.88;1.20;;;;;;;13.53;38.71;99100.84;4998344;28;20113;-62
2024/03/26 04:47:21;;;;;;;3.65;0.98;;;;;;;13.53;38.04;99095.47;5015915;28;20034;-62
2024/03/26 04:49:47;;;;;;;5.20;1.35;;;;;;;13.54;38.26;99102.53;5015650;28;20036;-62
2024/03/26 04:52:12;;;;;;;4.13;1.35;;;;;;;13.53;37.76;99101.69;4998145;28;20120;-62
2024/03/26 04:54:37;;;;;;;1.65;1.10;;;;;;;13.52;38.48;99099.19;4998239;28;20030;-63
2024/03/26 04:57:03;;;;;;;4.15;1.08;;;;;;;13.50;38.90;99095.84;4998136;28;20050;-63
2024/03/26 04:59:28;;;;;;;4.00;1.50;;;;;;;13.50;38.10;99098.53;4997909;28;20030;-62
2024/03/26 05:01:53;;;;;;;3.60;1.35;;;;;;;13.49;38.94;99094.19;5013018;28;20109;-64
2024/03/26 05:04:19;;;;;;;3.33;1.40;;;;;;;13.50;38.70;99102.06;5015536;28;20049;-62
2024/03/26 05:06:44;;;;;;;2.97;1.67;;;;;;;13.49;39.39;99100.41;4998155;28;20488;-63
2024/03/26 05:09:10;;;;;;;4.03;1.63;;;;;;;13.47;38.45;99090.84;4997986;28;20037;-62
2024/03/26 05:11:38;;;;;;;3.80;1.35;;;;;;;13.49;39.31;99092.31;4998218;28;20018;-62
2024/03/26 05:14:04;;;;;;;3.97;1.58;;;;;;;13.47;39.24;99085.47;4997985;28;20022;-62
2024/03/26 05:16:30;;;;;;;6.50;1.45;;;;;;;13.45;38.81;99082.16;4998399;28;20053;-62
2024/03/26 05:18:55;;;;;;;2.50;1.40;;;;;;;13.46;38.58;99073.03;4981519;28;20029;-62
2024/03/26 05:21:20;;;;;;;3.47;1.75;;;;;;;13.46;38.46;99078.41;4997961;28;20025;-62
2024/03/26 05:23:46;;;;;;;2.75;1.15;;;;;;;13.47;38.88;99080.94;4998547;28;20022;-62
2024/03/26 05:26:12;;;;;;;5.05;1.85;;;;;;;13.45;38.77;99076.78;4997611;28;20021;-62
2024/03/26 05:28:37;;;;;;;4.15;1.10;;;;;;;13.48;39.33;99082.63;5015721;28;20509;-62
2024/03/26 05:31:19;;;;;;;2.55;1.55;;;;;;;13.45;38.18;99079.47;4981590;28;20018;-62
2024/03/26 05:33:48;;;;;;;4.88;1.20;;;;;;;13.43;38.89;99073.44;5015235;28;20049;-62
2024/03/26 05:36:14;;;;;;;2.05;1.52;;;;;;;13.39;39.34;99073.81;4997514;28;20053;-62
2024/03/26 05:38:40;;;;;;;2.35;1.42;;;;;;;13.39;38.10;99079.22;4997654;28;20057;-62
2024/03/26 05:41:06;;;;;;;2.22;1.35;;;;;;;13.40;38.84;99075.47;4997289;28;20042;-62
2024/03/26 05:43:31;;;;;;;3.40;1.70;;;;;;;13.36;38.72;99074.19;4997331;28;20084;-62
2024/03/26 05:45:57;;;;;;;1.65;1.52;;;;;;;13.40;39.79;99080.84;4997399;28;20474;-62
2024/03/26 05:48:22;;;;;;;1.55;1.20;;;;;;;13.41;39.56;99081.69;4980906;28;20037;-62
2024/03/26 05:50:49;;;;;;;4.00;1.60;;;;;;;13.39;39.43;99073.81;4997429;28;20100;-62
2024/03/26 05:53:14;;;;;;;4.63;1.48;;;;;;;13.41;38.83;99074.47;4993652;28;20042;-62
2024/03/26 05:55:39;;;;;;;5.68;1.30;;;;;;;13.40;39.31;99072.78;4982318;28;20053;-63
2024/03/26 05:58:05;;;;;;;3.67;1.77;;;;;;;13.38;39.40;99060.56;4993668;28;20133;-63
2024/03/26 06:00:30;;;;;;;9.07;1.50;;;;;;;13.47;39.63;99074.72;4999895;28;20030;-62
2024/03/26 06:02:56;;;;;;;2.67;1.30;;;;;;;13.50;39.49;99072.47;5014538;28;20112;-62
2024/03/26 06:05:21;;;;;;;3.47;1.20;;;;;;;13.52;39.04;99077.66;5014672;28;20033;-63
2024/03/26 06:07:46;;;;;;;2.40;1.17;;;;;;;13.56;39.06;99073.56;4996887;28;20026;-62
2024/03/26 06:10:12;;;;;;;2.85;1.33;;;;;;;13.59;39.84;99079.41;5014020;28;20080;-62
2024/03/26 06:12:40;;;;;;;2.55;1.55;;;;;;;13.64;38.73;99076.97;4993693;28;20027;-62
2024/03/26 06:15:06;;;;;;;6.63;1.25;;;;;;;13.67;38.92;99081.13;5000463;28;20034;-62
2024/03/26 06:17:32;;;;;;;5.50;1.20;;;;;;;13.70;38.75;99070.00;5013278;28;20034;-62
2024/03/26 06:19:57;;;;;;;2.65;1.77;;;;;;;13.74;38.97;99073.94;4996954;28;20081;-62
2024/03/26 06:22:22;;;;;;;4.03;1.92;;;;;;;13.76;39.23;99066.53;5014194;28;20498;-63
2024/03/26 06:24:48;;;;;;;3.38;1.65;;;;;;;13.83;39.25;99086.25;5012821;28;20034;-62
2024/03/26 06:27:13;;;;;;;1.83;1.17;;;;;;;13.87;38.71;99077.59;4996403;28;20065;-62
2024/03/26 06:29:39;;;;;;;5.18;1.48;;;;;;;13.92;38.46;99080.56;4996518;28;20164;-62
2024/03/26 06:32:04;;;;;;;3.65;1.70;;;;;;;13.98;38.80;99076.25;4996827;28;20034;-62
2024/03/26 06:34:30;;;;;;;2.60;1.42;;;;;;;14.01;39.08;99073.19;4996179;28;20038;-62
2024/03/26 06:36:55;;;;;;;4.78;1.60;;;;;;;14.05;38.54;99063.69;5013912;28;20034;-62
2024/03/26 06:39:21;;;;;;;2.92;1.25;;;;;;;14.11;38.56;99078.22;4996316;28;20125;-62
2024/03/26 06:41:46;;;;;;;3.83;1.67;;;;;;;14.18;38.81;99079.94;4996132;28;20057;-63
2024/03/26 06:44:11;;;;;;;1.98;1.45;;;;;;;14.23;39.04;99068.59;4996279;28;20041;-62
2024/03/26 06:46:38;;;;;;;4.30;1.63;;;;;;;14.28;38.89;99075.06;5021066;28;20033;-62
2024/03/26 06:49:04;;;;;;;6.47;1.80;;;;;;;14.32;38.63;99065.56;5015393;28;20044;-62
2024/03/26 06:51:29;;;;;;;6.03;1.48;;;;;;;14.35;38.44;99057.09;5015960;28;20041;-62
2024/03/26 06:53:54;;;;;;;4.38;2.25;;;;;;;14.37;38.78;99055.06;5033233;28;20029;-62
2024/03/26 06:56:20;;;;;;;6.13;1.83;;;;;;;14.40;38.95;99051.97;5015528;28;20091;-63
2024/03/26 06:58:45;;;;;;;1.75;1.20;;;;;;;14.45;39.01;99051.38;5015657;28;20040;-62
2024/03/26 07:01:12;;;;;;;3.67;1.67;;;;;;;14.47;39.51;99069.00;5015420;28;20046;-62
2024/03/26 07:03:37;;;;;;;4.43;1.70;;;;;;;14.48;38.57;99054.50;5015514;28;20065;-62
2024/03/26 07:06:06;;;;;;;4.00;1.33;;;;;;;14.51;40.04;99056.81;5033484;28;20289;-62
2024/03/26 07:08:32;;;;;;;3.42;1.85;;;;;;;14.51;39.38;99054.13;5033387;28;20126;-62
2024/03/26 07:10:58;;;;;;;2.08;1.52;;;;;;;14.56;39.27;99062.44;5015486;28;20083;-62
2024/03/26 07:13:27;;;;;;;3.72;1.17;;;;;;;14.59;39.20;99063.91;5033207;28;20045;-62
2024/03/26 07:15:52;;;;;;;3.45;1.40;;;;;;;14.60;38.97;99051.25;5033355;28;20083;-63
2024/03/26 07:18:18;;;;;;;3.78;1.42;;;;;;;14.64;39.59;99049.81;5015889;28;20038;-62
2024/03/26 07:20:44;;;;;;;3.97;1.60;;;;;;;14.70;39.44;99052.56;5017257;28;20091;-63
2024/03/26 07:23:09;;;;;;;4.95;1.48;;;;;;;14.72;38.99;99046.97;5001207;28;20033;-63
2024/03/26 07:25:35;;;;;;;5.55;1.70;;;;;;;14.78;38.83;99041.63;5038577;28;20489;-62
2024/03/26 07:28:00;;;;;;;2.97;1.80;;;;;;;14.83;39.31;99031.06;5024714;28;20037;-63
2024/03/26 07:30:25;;;;;;;3.38;1.30;;;;;;;14.91;39.77;99040.81;5023082;28;20034;-62
2024/03/26 07:32:51;;;;;;;5.95;1.55;;;;;;;14.98;39.05;99039.00;5039913;28;20037;-62
2024/03/26 07:35:16;;;;;;;3.90;1.75;;;;;;;15.12;39.43;99035.31;5005313;28;20112;-63
2024/03/26 07:37:44;;;;;;;5.28;1.48;;;;;;;15.19;38.83;99036.16;5022960;28;20052;-62
2024/03/26 07:40:10;;;;;;;3.15;2.13;;;;;;;15.25;39.39;99024.56;5022187;28;20037;-62
2024/03/26 07:42:36;;;;;;;4.03;1.30;;;;;;;15.32;39.69;99028.13;5021514;28;20471;-63
2024/03/26 07:45:01;;;;;;;5.38;1.48;;;;;;;15.37;39.52;99024.81;5039398;28;20030;-64
2024/03/26 07:47:27;;;;;;;6.22;1.42;;;;;;;15.43;39.45;99015.91;5021768;28;20052;-62
2024/03/26 07:49:52;;;;;;;3.08;2.40;;;;;;;15.47;38.91;99017.19;5039294;28;20080;-62
2024/03/26 07:52:18;;;;;;;5.30;1.67;;;;;;;15.47;38.81;99014.47;5004993;28;20053;-63
2024/03/26 07:54:43;;;;;;;7.47;1.52;;;;;;;15.48;38.92;99013.44;5039538;28;20405;-62
2024/03/26 07:57:08;;;;;;;5.22;1.80;;;;;;;15.47;39.08;99018.00;5020245;28;20046;-62
2024/03/26 07:59:34;;;;;;;2.72;1.60;;;;;;;15.50;39.50;99009.50;5019342;28;20124;-62
2024/03/26 08:02:00;;;;;;;4.63;3.28;;;;;;;15.55;39.22;99020.50;5001989;28;20065;-62
2024/03/26 08:04:25;;;;;;;1.95;1.50;;;;;;;15.55;39.86;99009.72;5001916;28;20077;-62
2024/03/26 08:06:52;;;;;;;1.73;1.20;;;;;;;15.55;39.87;99008.91;5001983;28;20087;-62
2024/03/26 08:09:18;;;;;;;7.95;1.42;;;;;;;15.58;39.98;99008.47;5001807;28;20109;-62
2024/03/26 08:11:43;;;;;;;2.35;1.40;;;;;;;15.63;39.73;99006.81;4985202;28;20120;-62
2024/03/26 08:14:08;;;;;;;2.92;1.70;;;;;;;15.68;39.94;99009.75;5001713;28;20521;-62
2024/03/26 08:16:34;;;;;;;5.18;1.50;;;;;;;15.74;38.62;99008.09;4985456;28;20053;-62
2024/03/26 08:18:59;;;;;;;1.98;1.13;;;;;;;15.85;38.68;99015.56;5001772;28;20516;-62
2024/03/26 08:21:25;;;;;;;4.07;1.70;;;;;;;15.94;39.41;99003.50;5001583;28;20061;-63
2024/03/26 08:23:50;;;;;;;7.28;1.83;;;;;;;16.02;39.01;99000.63;5001901;28;20030;-63
2024/03/26 08:26:16;;;;;;;5.32;1.90;;;;;;;16.10;39.83;98992.31;5002017;28;20038;-63
2024/03/26 08:28:41;;;;;;;5.60;1.40;;;;;;;16.20;39.09;98990.00;5002096;28;20057;-63
2024/03/26 08:31:07;;;;;;;3.67;1.30;;;;;;;16.28;40.08;98994.34;5019370;28;20437;-63
2024/03/26 08:33:33;;;;;;;4.93;1.90;;;;;;;16.35;39.50;98986.22;5013995;28;20551;-63
2024/03/26 08:36:05;;;;;;;7.15;2.08;;;;;;;16.39;39.58;98996.38;5021094;28;20041;-63
2024/03/26 08:38:31;;;;;;;2.33;1.60;;;;;;;16.42;39.53;98995.97;5010630;28;20104;-63
2024/03/26 08:40:56;;;;;;;9.35;1.48;;;;;;;16.44;39.63;98993.91;4994228;28;20030;-64
2024/03/26 08:43:22;;;;;;;2.05;1.15;;;;;;;16.48;38.30;98989.72;5006035;28;20041;-63
2024/03/26 08:45:48;;;;;;;3.00;1.50;;;;;;;16.48;39.75;98992.41;4987507;28;20030;-63
2024/03/26 08:48:13;;;;;;;4.70;1.75;;;;;;;16.52;39.60;98987.44;4999427;28;20045;-63
2024/03/26 08:50:39;;;;;;;3.75;1.63;;;;;;;16.52;39.88;98980.16;5008615;28;20022;-63
2024/03/26 08:53:04;;;;;;;4.60;1.90;;;;;;;16.52;38.49;98980.16;5024522;28;20121;-63
2024/03/26 08:55:29;;;;;;;2.78;1.60;;;;;;;16.56;39.25;98978.72;4999118;28;20402;-62
2024/03/26 08:57:55;;;;;;;4.13;1.92;;;;;;;16.57;39.06;98977.69;5004950;28;20034;-62
2024/03/26 09:00:20;;;;;;;3.53;1.60;;;;;;;16.59;39.15;98975.56;4988800;28;20034;-62
2024/03/26 09:02:45;;;;;;;3.53;1.48;;;;;;;16.65;39.07;98979.31;5003652;28;20054;-62
2024/03/26 09:05:11;;;;;;;3.63;1.42;;;;;;;16.66;39.28;98980.97;5005750;28;20395;-62
2024/03/26 09:07:36;;;;;;;4.25;2.22;;;;;;;16.66;39.94;98971.00;4997875;28;20044;-62
2024/03/26 09:10:06;;;;;;;4.20;1.92;;;;;;;16.73;39.13;98976.34;5014326;28;20057;-62
2024/03/26 09:12:32;;;;;;;5.60;1.85;;;;;;;16.79;39.52;98978.22;5015709;28;20030;-62
2024/03/26 09:14:58;;;;;;;3.22;1.33;;;;;;;16.83;39.65;98971.34;5014029;28;20521;-63
2024/03/26 09:17:23;;;;;;;3.95;2.08;;;;;;;16.86;39.26;98966.31;4997628;28;20037;-64
2024/03/26 09:19:48;;;;;;;2.88;1.80;;;;;;;16.93;39.53;98970.88;5014126;28;20109;-62
2024/03/26 09:22:14;;;;;;;2.10;1.65;;;;;;;16.99;39.52;98961.88;5013920;28;20050;-63
2024/03/26 09:24:39;;;;;;;4.28;1.92;;;;;;;17.07;39.61;98958.94;5013664;28;20061;-63
2024/03/26 09:27:04;;;;;;;5.47;2.33;;;;;;;17.15;39.40;98956.81;5004967;28;20084;-63
2024/03/26 09:29:30;;;;;;;5.88;1.88;;;;;;;17.24;39.51;98958.22;5000232;28;20181;-63
2024/03/26 09:31:55;;;;;;;6.72;2.13;;;;;;;17.32;39.34;98949.00;5004666;28;20022;-63
2024/03/26 09:34:21;;;;;;;3.63;2.00;;;;;;;17.42;39.76;98938.50;5002835;28;20031;-63
2024/03/26 09:36:46;;;;;;;7.88;2.13;;;;;;;17.50;39.91;98945.53;5005072;28;20448;-67
2024/03/26 09:39:11;;;;;;;3.78;2.53;;;;;;;17.60;39.76;98951.31;4989566;28;20502;-67
2024/03/26 09:41:37;;;;;;;4.55;2.28;;;;;;;17.67;38.92;98936.66;5003732;28;20030;-67
2024/03/26 09:44:03;;;;;;;6.32;2.13;;;;;;;17.73;39.66;98933.09;4989701;28;20053;-67
2024/03/26 09:46:29;;;;;;;4.93;1.60;;;;;;;17.84;39.42;98934.22;4988606;28;20417;-67
2024/03/26 09:48:58;;;;;;;6.53;1.90;;;;;;;17.93;38.51;98936.44;5001946;28;20085;-67
2024/03/26 09:51:24;;;;;;;7.38;2.20;;;;;;;17.99;39.11;98938.28;4988593;28;20554;-67
2024/03/26 09:53:50;;;;;;;5.03;1.83;;;;;;;18.04;38.98;98938.41;4988513;28;20026;-67
2024/03/26 09:56:17;;;;;;;6.63;2.08;;;;;;;18.11;39.28;98932.13;5001978;28;20445;-67
2024/03/26 09:58:42;;;;;;;4.75;1.23;;;;;;;18.16;38.90;98934.97;5022383;28;20045;-67
2024/03/26 10:01:09;;;;;;;3.65;1.70;;;;;;;18.22;39.34;98928.66;4991782;28;20034;-67
2024/03/26 10:03:35;;;;;;;3.88;2.53;;;;;;;18.31;39.49;98924.59;4985822;28;20066;-67
2024/03/26 10:06:00;;;;;;;5.03;1.30;;;;;;;18.37;39.30;98921.81;5008337;28;20123;-67
2024/03/26 10:08:26;;;;;;;8.00;1.65;;;;;;;18.44;39.19;98927.16;5006590;28;20080;-67
2024/03/26 10:10:51;;;;;;;8.23;1.92;;;;;;;18.52;39.55;98924.19;5006767;28;20026;-67
2024/03/26 10:13:17;;;;;;;8.27;1.77;;;;;;;18.59;39.38;98919.50;5025028;28;20032;-67
2024/03/26 10:15:43;;;;;;;4.32;1.40;;;;;;;18.69;39.27;98916.25;5005258;28;20030;-67
2024/03/26 10:18:09;;;;;;;4.22;1.50;;;;;;;18.78;38.90;98910.28;4991604;28;20040;-67
2024/03/26 10:20:35;;;;;;;6.32;1.33;;;;;;;18.86;39.19;98907.25;5005091;28;20038;-67
2024/03/26 10:23:01;;;;;;;3.40;1.15;;;;;;;18.92;38.96;98903.63;5004923;28;20176;-67
2024/03/26 10:25:27;;;;;;;2.10;1.25;;;;;;;18.99;39.19;98904.34;5007669;28;20022;-67
2024/03/26 10:27:55;;;;;;;2.83;1.95;;;;;;;19.07;39.31;98901.31;5005304;28;20031;-67
2024/03/26 10:30:20;;;;;;;4.82;1.77;;;;;;;19.13;39.20;98904.97;5004252;28;20034;-67
2024/03/26 10:32:46;;;;;;;1.88;1.30;;;;;;;19.18;38.68;98897.81;5005452;28;20026;-67
2024/03/26 10:35:12;;;;;;;5.22;1.80;;;;;;;19.27;39.33;98889.31;5005800;28;20039;-67
2024/03/26 10:37:37;;;;;;;6.95;1.60;;;;;;;19.31;39.03;98883.22;5024916;28;20378;-67
2024/03/26 10:40:08;;;;;;;2.78;1.67;;;;;;;19.39;38.98;98876.63;5006308;28;20034;-67
2024/03/26 10:42:44;;;;;;;7.72;1.88;;;;;;;19.48;38.84;98876.06;4998119;28;20073;-67
2024/03/26 10:45:09;;;;;;;3.10;1.65;;;;;;;19.54;38.93;98875.13;5010532;28;20045;-67
2024/03/26 10:47:36;;;;;;;5.05;1.80;;;;;;;19.64;38.94;98874.53;5007710;28;20021;-63
2024/03/26 10:50:02;;;;;;;5.43;2.05;;;;;;;19.71;38.59;98867.91;5002727;28;20061;-62
2024/03/26 10:52:28;;;;;;;2.63;1.67;;;;;;;19.75;39.00;98871.84;5004496;28;20041;-63
2024/03/26 10:54:54;;;;;;;6.50;1.83;;;;;;;19.85;38.88;98863.06;5004726;28;20029;-63
2024/03/26 10:57:20;;;;;;;4.13;2.03;;;;;;;19.96;38.34;98854.09;4990501;28;20050;-63
2024/03/26 10:59:45;;;;;;;5.70;1.80;;;;;;;20.11;38.47;98859.03;5004994;28;20082;-62
2024/03/26 11:02:11;;;;;;;4.57;1.58;;;;;;;20.24;38.41;98856.91;5005450;28;20026;-63
2024/03/26 11:04:36;;;;;;;5.07;1.33;;;;;;;20.40;38.26;98851.81;5004057;28;20022;-64
2024/03/26 11:07:02;;;;;;;3.60;1.52;;;;;;;20.55;38.61;98843.94;4990643;28;20025;-62
2024/03/26 11:09:27;;;;;;;6.57;2.10;;;;;;;20.74;38.34;98842.69;5024427;28;20363;-63
2024/03/26 11:11:53;;;;;;;4.80;1.88;;;;;;;20.89;38.25;98832.09;5004612;28;20028;-63
2024/03/26 11:14:18;;;;;;;4.05;2.00;;;;;;;21.11;37.98;98827.59;5007045;28;20013;-63
2024/03/26 11:16:43;;;;;;;2.92;1.27;;;;;;;21.28;37.66;98823.00;5006408;28;20090;-64
2024/03/26 11:19:24;;;;;;;5.22;1.50;;;;;;;21.42;38.31;98821.59;4990436;28;20022;-63
2024/03/26 11:21:51;;;;;;;6.15;1.58;;;;;;;21.58;37.96;98827.31;5001818;28;20192;-64
2024/03/26 11:24:23;;;;;;;2.42;1.55;;;;;;;21.78;37.68;98819.41;5004889;28;20224;-63
2024/03/26 11:26:49;;;;;;;3.05;1.60;;;;;;;22.05;37.73;98817.66;5001098;28;20375;-63